Impacts TAF Board
For situational awareness. Not to be used for flight planning purposes.
IDs:

KSAF - Santa Fe Cnty Muni, NM, US

Issued at 1738 UTC 02 Aug 2021
Updated at 2143 UTC 02 Aug 2021
Potential Impact None Slight Moderate High
Time2053Z 02/22Z 02/23Z 03/00Z 03/01Z 03/02Z 03/03Z 03/04Z 03/05Z 03/06Z 03/07Z 03/08Z 03/09Z 03/10Z>>
Type OBS PRVL
  [TEMP]  
PRVL
  [TEMP]  
PRVL
  [TEMP]  
PRVL
  [TEMP]  
PRVL PRVL PRVL PRVL PRVL PRVL PRVL PRVL PRVL
VIS 10 >6
  [5]  
>6
  [5]  
>6
  [5]  
>6
  [5]  
>6 >6 >6 >6 >6 >6 >6 >6 >6
CIG -- --
  [60]  
--
  [60]  
--
  [60]  
--
  [60]  
-- 100 100 100 100 -- -- -- --
Cover SCT SCT
  [BKN]  
SCT
  [BKN]  
SCT
  [BKN]  
SCT
  [BKN]  
SCT BKN BKN BKN BKN SCT SCT SCT SCT
FltCat VFR VFR
  [MVFR]  
VFR
  [MVFR]  
VFR
  [MVFR]  
VFR
  [MVFR]  
VFR VFR VFR VFR VFR VFR VFR VFR VFR
WX -- VCSH
  [TSRA]  
VCSH
  [TSRA]  
VCSH
  [TSRA]  
VCSH
  [TSRA]  
VCSH VCSH VCSH VCSH VCSH -- -- -- --
WDir 240 300
[VRB]
300
[VRB]
300
[VRB]
300
[VRB]
300 10 10 10 10 360 360 360 360
WSpd 10 8
  [15]  
8
  [15]  
8
  [15]  
8
  [15]  
8 6 6 6 6 5 5 5 5
WGst 18 --
  [25]  
--
  [25]  
--
  [25]  
--
  [25]  
-- -- -- -- -- -- -- -- --
Raw TAF
KSAF 021738Z 0218/0318 22006KT P6SM FEW070 SCT100
  FM022200 30008KT P6SM VCSH SCT070 SCT100
  TEMPO 0222/0302 VRB15G25KT 5SM TSRA BKN060CB
  FM030300 01006KT P6SM VCSH SCT060 BKN100
  FM030700 36005KT P6SM SCT110


Raw METAR
KSAF 022053Z 24010G18KT 10SM SCT100 27/12 A3034 RMK AO2 SLP171 T02670122 56025
KSAF 021953Z 21008KT 10SM FEW049 BKN110 25/12 A3036 RMK AO2 SLP182 T02500117
KSAF 021853Z 24004KT 10SM CLR 24/11 A3040 RMK AO2 SLP195 T02390106

METAR Board
Radar Display
Forecast Discussion
For situational awareness. Not to be used for flight planning purposes.